Pagrindinis puslapis
METAR-TAF:

METAR-TAF

Oro uostai :

Haifa, Izraelis

platuma: 32-48N, ilguma: 035-02E, Aukštis: 8 m

Dabartinis oras

Ataskaita buvo paskelbta 6 valandos ir 34 minutes, ne 16:50 UTC
Vėjas 11 kt iš Šiaurės
Temperatūra 27°C
Drėgmė 54%
Slėgis 1014 hPa
Matomumas 10 km arba daugiau
nėra debesų žemiau 1500 m ir nėra kamuolinių lietaus debesų

METAR: LLHA 241650Z 35011KT CAVOK 27/17 Q1014

Laikas: 02:24 (23:24 UTC)

Prognozė

Ataskaita buvo paskelbta 6 valandos ir 16 minutes, ne 17:08 UTC
Prognozė galioja nuo 24 metu 18 UTC su 25 metu 18 UTC
Vėjas 8 kt iš Šiaurės
Matomumas 10 km arba daugiau
nėra debesų žemiau 1500 m ir nėra kamuolinių lietaus debesų
Laikinai
nuo 24 metu 23 UTC su 25 metu 06 UTC
Vėjas 4 kt nuo kintamojo kryptimis
Tapsmas
nuo 25 metu 07 UTC su 25 metu 09 UTC
Vėjas 13 kt iš Šiaurės/Šiaurės Vakarų
Tapsmas
nuo 25 metu 15 UTC su 25 metu 17 UTC
Vėjas 6 kt iš Šiaurės

TAF: LLHA 241708Z 2418/2518 36008KT CAVOK TEMPO 2423/2506 VRB04KT BECMG 2507/2509 33013KT BECMG 2515/2517 36006KT TX30/2510Z TN22/2503Z

Orai ataskaitas ir orų prognozės (METAR, TAF).

turimą stotys yra geltonos ir raudonos taškus žemėlapyje.

Perkelti pele per norėdami pamatyti stoties vardą.

Tada spustelėkite, norėdami matyti oro stebėjimo ir prognozės.

Norėdami pakeisti žemėlapį: spustelėkite ant žalios mygtukų su juodo kryžiaus žemyn,; žalią mygtuką su brūkšneliu, jei norite nutolinti; arba žalių rodyklių gretimoms žemėlapius.


METAR-TAF: